createdAt,value
2019-02-05T00:01:19.607Z,7.83
2019-02-05T00:06:26.332Z,6.57
2019-02-05T00:11:33.664Z,7.07
2019-02-05T00:16:42.171Z,6.57
2019-02-05T00:21:48.213Z,6.40
2019-02-05T00:26:55.021Z,6.50
2019-02-05T00:32:02.220Z,6.30
2019-02-05T00:37:08.987Z,7.43
2019-02-05T00:42:15.192Z,7.13
2019-02-05T00:47:21.212Z,6.23
2019-02-05T00:52:27.571Z,6.93
2019-02-05T00:57:34.270Z,6.43
2019-02-05T01:02:42.019Z,6.33
2019-02-05T01:07:48.334Z,7.07
2019-02-05T01:12:54.794Z,6.03
2019-02-05T01:18:00.647Z,6.47
2019-02-05T01:23:06.310Z,6.40
2019-02-05T01:28:12.214Z,6.40
2019-02-05T01:33:18.544Z,6.00
2019-02-05T01:38:24.714Z,6.27
2019-02-05T01:43:31.415Z,5.93
2019-02-05T01:48:37.060Z,6.33
2019-02-05T01:53:44.584Z,7.50
2019-02-05T01:58:50.443Z,6.30
2019-02-05T02:03:56.361Z,6.10
2019-02-05T02:09:04.856Z,5.80
2019-02-05T02:14:13.211Z,5.83
2019-02-05T02:19:19.059Z,5.93
2019-02-05T02:24:25.361Z,6.27
2019-02-05T02:29:31.195Z,5.60
2019-02-05T02:34:37.429Z,6.50
2019-02-05T02:39:43.471Z,6.27
2019-02-05T02:44:49.274Z,5.47
2019-02-05T02:49:55.843Z,5.67
2019-02-05T02:55:01.628Z,5.73
2019-02-05T03:00:19.044Z,5.80
2019-02-05T03:05:25.556Z,5.60
2019-02-05T03:10:32.470Z,5.83
2019-02-05T03:15:39.369Z,6.27
2019-02-05T03:20:45.978Z,5.70
2019-02-05T03:25:51.835Z,5.77
2019-02-05T03:30:59.768Z,5.83
2019-02-05T03:36:06.441Z,5.57
2019-02-05T03:41:13.555Z,5.30
2019-02-05T03:46:20.363Z,5.47
2019-02-05T03:51:31.999Z,5.47
2019-02-05T03:56:52.612Z,5.37
2019-02-05T04:02:19.695Z,5.10
2019-02-05T04:07:43.054Z,5.13
2019-02-05T04:13:03.854Z,5.57
2019-02-05T04:18:43.178Z,5.80
2019-02-05T04:24:04.150Z,5.73
2019-02-05T04:29:16.743Z,5.37
2019-02-05T04:34:42.039Z,6.63
2019-02-05T04:40:09.544Z,6.30
2019-02-05T04:45:33.792Z,6.87
2019-02-05T04:50:41.140Z,6.13
2019-02-05T04:56:20.131Z,6.53
2019-02-05T05:01:32.335Z,6.43
2019-02-05T05:06:53.032Z,6.40
2019-02-05T05:11:58.816Z,6.77
2019-02-05T05:17:05.263Z,6.67
2019-02-05T05:22:12.173Z,6.23
2019-02-05T05:27:20.316Z,6.07
2019-02-05T05:32:26.307Z,6.37
2019-02-05T05:37:31.943Z,6.43
2019-02-05T05:42:38.119Z,6.67
2019-02-05T05:47:45.606Z,6.50
2019-02-05T05:52:53.525Z,6.20
2019-02-05T05:58:00.034Z,6.13
2019-02-05T06:03:05.858Z,6.13
2019-02-05T06:08:14.016Z,6.30
2019-02-05T06:13:19.940Z,6.50
2019-02-05T06:18:26.158Z,5.93
2019-02-05T06:23:32.396Z,5.87
2019-02-05T06:28:40.265Z,6.67
2019-02-05T06:33:46.109Z,5.60
2019-02-05T06:38:52.940Z,6.53
2019-02-05T06:43:59.045Z,5.90
2019-02-05T06:49:05.533Z,6.87
2019-02-05T06:54:12.774Z,6.80
2019-02-05T06:59:19.195Z,6.73
2019-02-05T07:04:25.806Z,7.53
2019-02-05T07:09:31.524Z,6.40
2019-02-05T07:14:37.413Z,7.67
2019-02-05T07:19:44.282Z,7.60
2019-02-05T07:24:50.433Z,7.97
2019-02-05T07:29:56.793Z,8.80
2019-02-05T07:35:02.835Z,8.80
2019-02-05T07:40:15.253Z,9.67
2019-02-05T07:45:22.613Z,8.90
2019-02-05T07:50:29.144Z,8.33
2019-02-05T07:55:36.033Z,7.90
2019-02-05T08:00:41.759Z,8.47
2019-02-05T08:05:48.266Z,7.63
2019-02-05T08:10:53.893Z,9.07
2019-02-05T08:16:01.147Z,8.63
2019-02-05T08:21:07.268Z,9.17
2019-02-05T08:26:14.574Z,8.97
2019-02-05T08:31:21.343Z,9.37
2019-02-05T08:36:27.449Z,8.47
2019-02-05T08:41:35.369Z,8.80
2019-02-05T08:46:43.357Z,9.33
2019-02-05T08:51:53.842Z,9.07
2019-02-05T08:57:00.792Z,8.30
2019-02-05T09:02:08.607Z,9.23
2019-02-05T09:07:17.507Z,8.43
2019-02-05T09:12:23.641Z,8.03
2019-02-05T09:17:31.563Z,9.10
2019-02-05T09:22:40.124Z,9.07
2019-02-05T09:27:46.274Z,8.47
2019-02-05T09:32:54.398Z,9.07
2019-02-05T09:38:01.731Z,9.63
2019-02-05T09:43:08.554Z,9.07
2019-02-05T09:48:15.489Z,9.33
2019-02-05T09:53:22.617Z,9.13
2019-02-05T09:58:28.589Z,10.07
2019-02-05T10:03:35.588Z,10.63
2019-02-05T10:08:41.522Z,10.47
2019-02-05T10:13:47.839Z,10.10
2019-02-05T10:18:54.753Z,10.03
2019-02-05T10:24:00.868Z,9.90
2019-02-05T10:29:06.730Z,9.90
2019-02-05T10:34:15.871Z,9.90
2019-02-05T10:39:24.620Z,10.33
2019-02-05T10:44:32.959Z,10.13
2019-02-05T10:49:39.155Z,10.37
2019-02-05T10:54:45.313Z,9.47
2019-02-05T10:59:54.289Z,9.77
2019-02-05T11:04:58.971Z,10.87
2019-02-05T11:10:08.422Z,11.27
2019-02-05T11:15:20.913Z,10.37
2019-02-05T11:20:28.659Z,11.33
2019-02-05T11:25:35.972Z,10.87
2019-02-05T11:30:45.402Z,11.40
2019-02-05T11:35:51.768Z,10.63
2019-02-05T11:40:58.030Z,10.83
2019-02-05T11:46:04.364Z,11.43
2019-02-05T11:51:10.594Z,11.03
2019-02-05T11:56:17.639Z,10.13
2019-02-05T12:01:24.115Z,12.20
2019-02-05T12:06:30.315Z,10.17
2019-02-05T12:11:38.183Z,11.77
2019-02-05T12:16:44.460Z,11.23
2019-02-05T12:21:51.594Z,11.70
2019-02-05T12:26:58.221Z,11.80
2019-02-05T12:32:06.679Z,11.23
2019-02-05T12:37:12.929Z,11.47
2019-02-05T12:42:20.131Z,11.77
2019-02-05T12:47:25.908Z,11.63
2019-02-05T12:52:34.543Z,11.37
2019-02-05T12:57:40.782Z,11.30
2019-02-05T13:02:46.593Z,12.23
2019-02-05T13:07:52.953Z,12.20
2019-02-05T13:13:02.526Z,12.40
2019-02-05T13:18:08.644Z,13.23
2019-02-05T13:23:15.026Z,12.40
2019-02-05T13:28:20.730Z,12.50
2019-02-05T13:33:27.401Z,12.67
2019-02-05T13:38:33.988Z,12.57
2019-02-05T13:43:41.485Z,12.30
2019-02-05T13:48:47.869Z,12.53
2019-02-05T13:53:54.349Z,12.17
2019-02-05T13:59:01.756Z,12.50
2019-02-05T14:04:09.093Z,13.23
2019-02-05T14:09:15.449Z,12.93
2019-02-05T14:14:22.028Z,13.80
2019-02-05T14:19:27.947Z,13.13
2019-02-05T14:24:34.433Z,12.60
2019-02-05T14:29:40.808Z,12.53
2019-02-05T14:34:46.959Z,11.57
2019-02-05T14:39:53.763Z,11.57
2019-02-05T14:45:02.219Z,12.03
2019-02-05T14:50:11.365Z,12.57
2019-02-05T14:55:17.289Z,12.70
2019-02-05T15:00:34.741Z,12.50
2019-02-05T15:05:41.643Z,12.07
2019-02-05T15:10:49.436Z,11.43
2019-02-05T15:15:55.884Z,12.40
2019-02-05T15:21:02.138Z,11.87
2019-02-05T15:26:08.491Z,12.50
2019-02-05T15:31:14.700Z,13.23
2019-02-05T15:36:23.125Z,12.67
2019-02-05T15:41:30.291Z,14.83
2019-02-05T15:46:36.813Z,13.33
2019-02-05T15:51:43.087Z,12.60
2019-02-05T15:56:54.002Z,13.03
2019-02-05T16:02:06.351Z,13.07
2019-02-05T16:07:09.373Z,12.63
2019-02-05T16:12:15.332Z,12.90
2019-02-05T16:17:21.060Z,13.60
2019-02-05T16:22:29.027Z,13.07
2019-02-05T16:27:35.264Z,13.13
2019-02-05T16:32:44.371Z,13.10
2019-02-05T16:38:12.667Z,13.00
2019-02-05T16:43:20.102Z,13.33
2019-02-05T16:48:28.394Z,13.63
2019-02-05T16:53:34.885Z,12.30
2019-02-05T16:58:41.803Z,13.50
2019-02-05T17:03:47.779Z,12.23
2019-02-05T17:08:56.534Z,12.53
2019-02-05T17:14:03.605Z,12.67
2019-02-05T17:19:11.034Z,12.93
2019-02-05T17:24:16.738Z,12.13
2019-02-05T17:29:22.548Z,12.00
2019-02-05T17:34:28.276Z,12.20
2019-02-05T17:39:34.373Z,12.43
2019-02-05T17:44:41.567Z,11.47
2019-02-05T17:49:47.899Z,12.07
2019-02-05T17:54:54.235Z,12.43
2019-02-05T18:00:00.231Z,12.30
2019-02-05T18:05:09.395Z,13.00
2019-02-05T18:10:18.937Z,11.83
2019-02-05T18:15:27.736Z,11.77
2019-02-05T18:20:35.498Z,12.50
2019-02-05T18:25:55.729Z,10.97
2019-02-05T18:31:03.354Z,11.87
2019-02-05T18:36:09.987Z,11.10
2019-02-05T18:41:17.026Z,10.93
2019-02-05T18:46:23.967Z,11.93
2019-02-05T18:51:31.372Z,10.97
2019-02-05T18:56:37.179Z,10.47
2019-02-05T19:01:43.588Z,10.90
2019-02-05T19:06:51.015Z,11.43
2019-02-05T19:11:57.217Z,11.67
2019-02-05T19:17:03.929Z,11.60
2019-02-05T19:22:11.202Z,13.23
2019-02-05T19:27:18.743Z,12.60
2019-02-05T19:32:26.429Z,13.30
2019-02-05T19:37:32.885Z,12.43
2019-02-05T19:42:40.254Z,14.00
2019-02-05T19:47:46.793Z,12.03
2019-02-05T19:52:53.252Z,11.87
2019-02-05T19:58:00.317Z,12.60
2019-02-05T20:03:08.679Z,12.03
2019-02-05T20:08:14.821Z,11.70
2019-02-05T20:13:21.642Z,11.57
2019-02-05T20:18:28.908Z,10.70
2019-02-05T20:23:37.347Z,11.63
2019-02-05T20:28:43.551Z,12.03
2019-02-05T20:33:51.188Z,11.97
2019-02-05T20:38:58.091Z,12.03
2019-02-05T20:44:07.079Z,11.83
2019-02-05T20:49:12.835Z,12.00
2019-02-05T20:54:19.294Z,11.87
2019-02-05T20:59:25.411Z,12.87
2019-02-05T21:04:35.357Z,12.30
2019-02-05T21:09:42.221Z,12.83
2019-02-05T21:14:47.954Z,11.90
2019-02-05T21:19:54.739Z,13.30
2019-02-05T21:25:00.600Z,12.87
2019-02-05T21:30:13.746Z,13.93
2019-02-05T21:35:21.320Z,13.93
2019-02-05T21:40:31.345Z,14.87
2019-02-05T21:45:40.361Z,12.80
2019-02-05T21:50:47.551Z,14.00
2019-02-05T21:55:54.039Z,13.37
2019-02-05T22:01:01.991Z,14.40
2019-02-05T22:06:08.834Z,13.43
2019-02-05T22:11:14.868Z,13.60
2019-02-05T22:16:21.095Z,12.90
2019-02-05T22:21:26.915Z,14.13
2019-02-05T22:26:35.209Z,13.27
2019-02-05T22:31:41.769Z,14.33
2019-02-05T22:36:48.416Z,13.37
2019-02-05T22:41:54.096Z,14.50
2019-02-05T22:47:00.618Z,14.50
2019-02-05T22:52:06.635Z,13.77
2019-02-05T22:57:12.495Z,13.23
2019-02-05T23:02:19.354Z,13.83
2019-02-05T23:07:27.498Z,13.73
2019-02-05T23:12:35.406Z,13.60
2019-02-05T23:17:42.105Z,13.13
2019-02-05T23:22:49.608Z,13.60
2019-02-05T23:27:56.192Z,12.60
2019-02-05T23:33:02.197Z,12.63
2019-02-05T23:38:10.225Z,13.50
2019-02-05T23:43:16.468Z,12.63
2019-02-05T23:48:23.016Z,13.13
2019-02-05T23:53:29.465Z,12.23
2019-02-05T23:58:35.624Z,13.10
